createdAt,value
2018-10-16T00:00:10.055Z,89.17
2018-10-16T00:01:10.233Z,89.45
2018-10-16T00:02:10.411Z,89.17
2018-10-16T00:03:10.617Z,88.78
2018-10-16T00:04:10.758Z,88.31
2018-10-16T00:05:10.943Z,88.40
2018-10-16T00:06:11.330Z,88.88
2018-10-16T00:07:11.314Z,89.74
2018-10-16T00:08:11.473Z,89.54
2018-10-16T00:09:11.653Z,90.12
2018-10-16T00:10:11.839Z,90.12
2018-10-16T00:11:12.012Z,90.59
2018-10-16T00:12:12.197Z,90.59
2018-10-16T00:13:12.355Z,90.31
2018-10-16T00:14:12.528Z,89.36
2018-10-16T00:15:12.700Z,89.74
2018-10-16T00:16:12.882Z,89.31
2018-10-16T00:17:13.048Z,89.60
2018-10-16T00:18:13.231Z,89.69
2018-10-16T00:19:13.420Z,89.69
2018-10-16T00:20:13.578Z,89.50
2018-10-16T00:21:13.749Z,88.84
2018-10-16T00:22:13.930Z,89.12
2018-10-16T00:23:14.107Z,89.40
2018-10-16T00:24:14.295Z,89.50
2018-10-16T00:25:14.476Z,88.45
2018-10-16T00:26:14.645Z,88.84
2018-10-16T00:27:14.807Z,88.93
2018-10-16T00:28:15.000Z,89.50
2018-10-16T00:29:15.169Z,89.31
2018-10-16T00:30:15.346Z,90.55
2018-10-16T00:31:15.527Z,90.84
2018-10-16T00:32:15.702Z,90.26
2018-10-16T00:33:15.873Z,90.55
2018-10-16T00:34:16.044Z,90.74
2018-10-16T00:35:16.208Z,90.45
2018-10-16T00:36:16.381Z,90.45
2018-10-16T00:37:16.572Z,90.55
2018-10-16T00:38:16.742Z,90.55
2018-10-16T00:39:16.936Z,90.74
2018-10-16T00:40:17.115Z,91.13
2018-10-16T00:41:17.293Z,90.84
2018-10-16T00:42:17.471Z,90.93
2018-10-16T00:43:17.645Z,91.03
2018-10-16T00:44:17.820Z,91.31
2018-10-16T00:45:17.999Z,91.79
2018-10-16T00:46:18.181Z,91.65
2018-10-16T00:47:18.362Z,92.79
2018-10-16T00:48:18.525Z,92.13
2018-10-16T00:49:18.707Z,91.74
2018-10-16T00:50:18.903Z,91.46
2018-10-16T00:51:19.065Z,90.93
2018-10-16T00:52:19.222Z,91.03
2018-10-16T00:53:19.406Z,90.79
2018-10-16T00:54:19.654Z,90.70
2018-10-16T00:55:19.821Z,91.27
2018-10-16T00:56:19.940Z,90.84
2018-10-16T00:57:20.085Z,90.41
2018-10-16T00:58:20.317Z,91.31
2018-10-16T00:59:20.493Z,91.50
2018-10-16T01:00:20.644Z,91.69
2018-10-16T01:01:20.829Z,92.98
2018-10-16T01:02:21.006Z,92.50
2018-10-16T01:03:21.193Z,92.32
2018-10-16T01:04:21.365Z,92.65
2018-10-16T01:05:21.544Z,92.74
2018-10-16T01:06:21.720Z,93.03
2018-10-16T01:07:21.895Z,93.27
2018-10-16T01:08:22.066Z,93.17
2018-10-16T01:09:22.241Z,93.46
2018-10-16T01:10:22.412Z,93.17
2018-10-16T01:11:22.584Z,93.27
2018-10-16T01:12:22.769Z,92.32
2018-10-16T01:13:22.925Z,92.41
2018-10-16T01:14:23.094Z,93.08
2018-10-16T01:15:23.289Z,93.37
2018-10-16T01:16:23.454Z,93.65
2018-10-16T01:17:23.682Z,93.74
2018-10-16T01:18:23.823Z,93.27
2018-10-16T01:19:23.994Z,93.08
2018-10-16T01:20:24.183Z,93.27
2018-10-16T01:21:24.302Z,92.60
2018-10-16T01:22:24.463Z,92.03
2018-10-16T01:23:24.633Z,92.50
2018-10-16T01:24:24.789Z,92.89
2018-10-16T01:25:24.968Z,93.65
2018-10-16T01:26:25.149Z,93.55
2018-10-16T01:27:25.287Z,93.65
2018-10-16T01:28:25.493Z,93.46
2018-10-16T01:29:25.623Z,92.69
2018-10-16T01:30:25.799Z,93.08
2018-10-16T01:31:25.978Z,92.32
2018-10-16T01:32:26.138Z,91.94
2018-10-16T01:33:26.305Z,92.03
2018-10-16T01:34:26.478Z,92.13
2018-10-16T01:35:26.645Z,93.08
2018-10-16T01:36:26.852Z,93.55
2018-10-16T01:37:26.980Z,93.17
2018-10-16T01:38:27.164Z,92.69
2018-10-16T01:39:27.309Z,92.41
2018-10-16T01:40:27.486Z,91.84
2018-10-16T01:41:27.644Z,92.03
2018-10-16T01:42:27.820Z,92.03
2018-10-16T01:43:28.002Z,92.69
2018-10-16T01:44:28.138Z,92.89
2018-10-16T01:45:28.322Z,93.51
2018-10-16T01:46:28.498Z,93.55
2018-10-16T01:47:28.669Z,93.27
2018-10-16T01:48:28.839Z,92.50
2018-10-16T01:49:29.013Z,92.50
2018-10-16T01:50:29.188Z,92.32
2018-10-16T01:51:29.373Z,92.69
2018-10-16T01:52:29.542Z,93.08
2018-10-16T01:53:29.714Z,93.17
2018-10-16T01:54:29.877Z,93.27
2018-10-16T01:55:30.046Z,92.69
2018-10-16T01:56:30.232Z,92.41
2018-10-16T01:57:30.387Z,92.36
2018-10-16T01:58:30.552Z,93.03
2018-10-16T01:59:30.722Z,92.84
2018-10-16T02:00:30.893Z,92.94
2018-10-16T02:01:31.046Z,92.60
2018-10-16T02:02:31.240Z,92.32
2018-10-16T02:03:31.408Z,92.50
2018-10-16T02:04:31.592Z,92.69
2018-10-16T02:05:31.778Z,92.41
2018-10-16T02:06:31.957Z,92.03
2018-10-16T02:07:32.132Z,92.32
2018-10-16T02:08:32.307Z,91.84
2018-10-16T02:09:32.474Z,91.84
2018-10-16T02:10:32.645Z,91.84
2018-10-16T02:11:32.823Z,91.84
2018-10-16T02:12:33.000Z,92.03
2018-10-16T02:13:33.153Z,91.70
2018-10-16T02:14:33.377Z,92.03
2018-10-16T02:15:33.503Z,91.55
2018-10-16T02:16:33.675Z,92.03
2018-10-16T02:17:33.854Z,91.36
2018-10-16T02:18:34.021Z,91.17
2018-10-16T02:19:34.195Z,90.60
2018-10-16T02:20:34.352Z,90.94
2018-10-16T02:21:34.538Z,91.13
2018-10-16T02:22:34.703Z,91.51
2018-10-16T02:23:34.865Z,91.99
2018-10-16T02:24:35.044Z,91.79
2018-10-16T02:25:35.220Z,91.79
2018-10-16T02:26:35.405Z,91.89
2018-10-16T02:27:35.583Z,92.27
2018-10-16T02:28:35.772Z,92.36
2018-10-16T02:29:35.931Z,92.27
2018-10-16T02:30:36.104Z,92.36
2018-10-16T02:31:36.280Z,91.89
2018-10-16T02:32:36.458Z,91.70
2018-10-16T02:33:36.630Z,92.18
2018-10-16T02:34:36.802Z,91.41
2018-10-16T02:35:36.994Z,91.51
2018-10-16T02:36:37.157Z,91.22
2018-10-16T02:37:37.324Z,91.22
2018-10-16T02:38:37.493Z,91.22
2018-10-16T02:39:37.674Z,90.27
2018-10-16T02:40:37.854Z,90.65
2018-10-16T02:41:38.031Z,90.65
2018-10-16T02:42:38.211Z,91.60
2018-10-16T02:43:38.389Z,92.08
2018-10-16T02:44:38.564Z,91.99
2018-10-16T02:45:38.754Z,92.18
2018-10-16T02:46:38.923Z,91.79
2018-10-16T02:47:39.100Z,92.27
2018-10-16T02:48:39.276Z,93.13
2018-10-16T02:49:39.455Z,93.22
2018-10-16T02:50:39.628Z,93.13
2018-10-16T02:51:39.795Z,93.89
2018-10-16T02:52:39.969Z,93.89
2018-10-16T02:53:40.138Z,93.13
2018-10-16T02:54:40.311Z,93.22
2018-10-16T02:55:40.489Z,93.13
2018-10-16T02:56:40.663Z,93.89
2018-10-16T02:57:40.841Z,93.79
2018-10-16T02:58:41.018Z,93.32
2018-10-16T02:59:41.197Z,92.46
2018-10-16T03:00:41.382Z,91.79
2018-10-16T03:01:41.542Z,91.70
2018-10-16T03:02:41.721Z,91.13
2018-10-16T03:03:41.891Z,91.70
2018-10-16T03:04:42.056Z,91.89
2018-10-16T03:05:42.234Z,91.99
2018-10-16T03:06:42.392Z,92.65
2018-10-16T03:07:42.580Z,93.32
2018-10-16T03:08:42.740Z,93.70
2018-10-16T03:09:42.915Z,93.89
2018-10-16T03:10:43.095Z,93.84
2018-10-16T03:11:43.270Z,94.22
2018-10-16T03:12:43.446Z,94.13
2018-10-16T03:13:43.611Z,94.60
2018-10-16T03:14:43.794Z,94.65
2018-10-16T03:15:43.963Z,94.42
2018-10-16T03:16:44.140Z,94.56
2018-10-16T03:17:44.319Z,93.94
2018-10-16T03:18:44.491Z,93.60
2018-10-16T03:19:44.715Z,93.65
2018-10-16T03:20:44.836Z,94.03
2018-10-16T03:21:45.028Z,93.84
2018-10-16T03:22:45.192Z,94.60
2018-10-16T03:23:45.356Z,94.51
2018-10-16T03:24:45.529Z,94.42
2018-10-16T03:25:45.709Z,94.51
2018-10-16T03:26:45.884Z,94.89
2018-10-16T03:27:46.066Z,94.42
2018-10-16T03:28:46.252Z,94.42
2018-10-16T03:29:46.410Z,94.79
2018-10-16T03:30:46.585Z,94.32
2018-10-16T03:31:46.763Z,94.42
2018-10-16T03:32:46.922Z,95.08
2018-10-16T03:33:47.098Z,94.60
2018-10-16T03:34:47.291Z,94.60
2018-10-16T03:35:47.448Z,94.79
2018-10-16T03:36:47.624Z,94.22
2018-10-16T03:37:47.797Z,95.22
2018-10-16T03:38:47.978Z,96.03
2018-10-16T03:39:48.151Z,96.79
2018-10-16T03:40:48.333Z,96.31
2018-10-16T03:41:48.495Z,96.60
2018-10-16T03:42:48.658Z,96.79
2018-10-16T03:43:48.830Z,96.51
2018-10-16T03:44:49.016Z,96.41
2018-10-16T03:45:49.164Z,96.41
2018-10-16T03:46:49.339Z,96.26
2018-10-16T03:47:49.514Z,96.22
2018-10-16T03:48:49.683Z,96.26
2018-10-16T03:49:49.857Z,96.46
2018-10-16T03:50:50.036Z,96.84
2018-10-16T03:51:50.212Z,96.74
2018-10-16T03:52:50.389Z,96.55
2018-10-16T03:53:50.567Z,96.65
2018-10-16T03:54:50.739Z,96.74
2018-10-16T03:55:50.904Z,95.89
2018-10-16T03:56:51.055Z,96.08
2018-10-16T03:57:51.222Z,96.55
2018-10-16T03:58:51.411Z,97.22
2018-10-16T03:59:51.564Z,97.22
2018-10-16T04:00:51.757Z,97.31
2018-10-16T04:01:51.902Z,97.60
2018-10-16T04:02:52.080Z,97.60
2018-10-16T04:03:52.231Z,97.60
2018-10-16T04:04:52.402Z,97.69
2018-10-16T04:05:52.569Z,97.41
2018-10-16T04:06:52.872Z,97.22
2018-10-16T04:07:52.898Z,97.69
2018-10-16T04:08:53.065Z,97.69
2018-10-16T04:09:53.243Z,97.79
2018-10-16T04:10:53.434Z,97.69
2018-10-16T04:11:53.612Z,97.69
2018-10-16T04:12:53.775Z,97.22
2018-10-16T04:13:54.014Z,97.13
2018-10-16T04:14:54.128Z,96.55
2018-10-16T04:15:54.304Z,96.65
2018-10-16T04:16:54.479Z,96.26
2018-10-16T04:17:54.658Z,96.74
2018-10-16T04:18:54.823Z,96.65
2018-10-16T04:19:55.021Z,96.94
2018-10-16T04:20:55.164Z,97.13
2018-10-16T04:21:55.335Z,96.65
2018-10-16T04:22:55.585Z,96.46
2018-10-16T04:23:55.694Z,96.65
2018-10-16T04:24:55.862Z,97.03
2018-10-16T04:25:56.037Z,96.26
2018-10-16T04:26:56.192Z,96.55
2018-10-16T04:27:56.346Z,96.26
2018-10-16T04:28:56.562Z,96.08
2018-10-16T04:29:56.715Z,95.79
2018-10-16T04:30:56.875Z,96.17
2018-10-16T04:31:57.056Z,96.17
2018-10-16T04:32:57.215Z,96.08
2018-10-16T04:33:57.410Z,96.08
2018-10-16T04:34:57.544Z,95.27
2018-10-16T04:35:57.760Z,95.12
2018-10-16T04:36:57.888Z,95.17
2018-10-16T04:37:58.050Z,95.03
2018-10-16T04:38:58.232Z,94.98
2018-10-16T04:39:58.401Z,95.36
2018-10-16T04:40:58.565Z,94.70
2018-10-16T04:41:58.729Z,94.60
2018-10-16T04:42:58.887Z,94.32
2018-10-16T04:43:59.069Z,94.42
2018-10-16T04:44:59.243Z,93.94
2018-10-16T04:45:59.415Z,93.94
2018-10-16T04:46:59.608Z,93.74
2018-10-16T04:47:59.761Z,93.94
2018-10-16T04:48:59.958Z,93.37
2018-10-16T04:50:00.120Z,93.55
2018-10-16T04:51:00.282Z,93.74
2018-10-16T04:52:00.457Z,93.65
2018-10-16T04:53:00.623Z,93.94
2018-10-16T04:54:00.791Z,93.46
2018-10-16T04:55:00.991Z,93.65
2018-10-16T04:56:01.234Z,93.37
2018-10-16T04:57:01.297Z,93.98
2018-10-16T04:58:01.466Z,94.37
2018-10-16T04:59:01.636Z,94.46
2018-10-16T05:00:01.815Z,94.56
2018-10-16T05:01:01.996Z,94.37
2018-10-16T05:02:02.183Z,94.27
2018-10-16T05:03:02.349Z,94.79
2018-10-16T05:04:02.592Z,93.94
2018-10-16T05:05:02.669Z,93.65
2018-10-16T05:06:02.863Z,93.55
2018-10-16T05:07:03.024Z,93.84
2018-10-16T05:08:03.183Z,93.55
2018-10-16T05:09:03.360Z,93.74
2018-10-16T05:10:03.523Z,93.55
2018-10-16T05:11:03.695Z,93.37
2018-10-16T05:12:03.845Z,93.46
2018-10-16T05:13:04.079Z,94.27
2018-10-16T05:14:04.196Z,94.27
2018-10-16T05:15:04.365Z,94.46
2018-10-16T05:16:04.548Z,94.65
2018-10-16T05:17:04.693Z,94.56
2018-10-16T05:18:04.865Z,94.74
2018-10-16T05:19:05.056Z,94.74
2018-10-16T05:20:05.228Z,94.70
2018-10-16T05:21:05.394Z,94.60
2018-10-16T05:22:05.557Z,94.51
2018-10-16T05:23:05.730Z,94.65
2018-10-16T05:24:05.900Z,94.42
2018-10-16T05:25:06.077Z,94.56
2018-10-16T05:26:06.251Z,94.27
2018-10-16T05:27:06.441Z,94.46
2018-10-16T05:28:06.619Z,94.51
2018-10-16T05:29:06.798Z,93.94
2018-10-16T05:30:06.973Z,93.84
2018-10-16T05:31:07.258Z,93.84
2018-10-16T05:32:07.313Z,93.74
2018-10-16T05:33:07.470Z,93.27
2018-10-16T05:34:07.647Z,93.18
2018-10-16T05:35:07.821Z,93.46
2018-10-16T05:36:07.994Z,93.65
2018-10-16T05:37:08.172Z,93.51
2018-10-16T05:38:08.345Z,94.08
2018-10-16T05:39:08.534Z,94.84
2018-10-16T05:40:08.693Z,95.32
2018-10-16T05:41:08.849Z,96.26
2018-10-16T05:42:09.037Z,96.26
2018-10-16T05:43:09.212Z,96.26
2018-10-16T05:44:09.392Z,95.41
2018-10-16T05:45:09.563Z,95.98
2018-10-16T05:46:09.747Z,95.51
2018-10-16T05:47:09.932Z,96.26
2018-10-16T05:48:10.089Z,96.36
2018-10-16T05:49:10.263Z,96.08
2018-10-16T05:50:10.438Z,95.98
2018-10-16T05:51:10.619Z,96.46
2018-10-16T05:52:10.797Z,95.79
2018-10-16T05:53:10.967Z,95.89
2018-10-16T05:54:11.159Z,96.17
2018-10-16T05:55:11.320Z,96.50
2018-10-16T05:56:11.484Z,97.74
2018-10-16T05:57:11.652Z,97.64
2018-10-16T05:58:11.822Z,98.22
2018-10-16T05:59:11.995Z,97.55
2018-10-16T06:00:12.172Z,97.60
2018-10-16T06:01:12.354Z,97.22
2018-10-16T06:02:12.522Z,96.65
2018-10-16T06:03:12.698Z,96.84
2018-10-16T06:04:12.861Z,96.36
2018-10-16T06:05:13.073Z,96.26
2018-10-16T06:06:13.515Z,96.17
2018-10-16T06:07:13.401Z,95.03
2018-10-16T06:08:13.588Z,95.22
2018-10-16T06:09:13.759Z,95.22
2018-10-16T06:10:13.931Z,94.93
2018-10-16T06:11:14.090Z,94.84
2018-10-16T06:12:14.299Z,94.74
2018-10-16T06:13:14.430Z,94.56
2018-10-16T06:14:14.613Z,94.51
2018-10-16T06:15:14.789Z,94.60
2018-10-16T06:16:14.962Z,93.84
2018-10-16T06:17:15.128Z,93.18
2018-10-16T06:18:15.306Z,93.55
2018-10-16T06:19:15.492Z,93.65
2018-10-16T06:20:15.664Z,93.84
2018-10-16T06:21:15.827Z,93.18
2018-10-16T06:22:16.012Z,91.99
2018-10-16T06:23:16.172Z,91.31
2018-10-16T06:24:16.406Z,91.03
2018-10-16T06:25:16.556Z,90.27
2018-10-16T06:26:16.736Z,89.26
2018-10-16T06:27:16.914Z,88.79
2018-10-16T06:28:17.096Z,88.60
2018-10-16T06:29:17.268Z,88.26
2018-10-16T06:30:17.524Z,87.21
2018-10-16T06:31:17.600Z,87.02
2018-10-16T06:32:17.780Z,86.36
2018-10-16T06:33:18.063Z,85.45
2018-10-16T06:34:18.161Z,84.97
2018-10-16T06:35:18.358Z,85.25
2018-10-16T06:36:18.515Z,84.20
2018-10-16T06:37:18.688Z,83.20
2018-10-16T06:38:18.873Z,82.15
2018-10-16T06:39:19.051Z,82.24
2018-10-16T06:40:19.271Z,82.43
2018-10-16T06:41:19.526Z,81.58
2018-10-16T06:42:19.622Z,81.20
2018-10-16T06:43:19.788Z,81.48
2018-10-16T06:44:19.951Z,81.20
2018-10-16T06:45:20.146Z,81.10
2018-10-16T06:46:20.333Z,81.58
2018-10-16T06:47:20.578Z,81.29
2018-10-16T06:48:20.969Z,81.38
2018-10-16T06:49:20.832Z,81.38
2018-10-16T06:50:21.013Z,81.01
2018-10-16T06:51:21.191Z,81.38
2018-10-16T06:52:21.363Z,81.38
2018-10-16T06:53:21.608Z,82.24
2018-10-16T06:54:21.716Z,82.11
2018-10-16T06:55:21.899Z,83.25
2018-10-16T06:56:22.059Z,83.88
2018-10-16T06:57:22.246Z,85.69
2018-10-16T06:58:22.413Z,87.31
2018-10-16T06:59:22.574Z,87.02
2018-10-16T07:00:22.810Z,86.83
2018-10-16T07:01:22.890Z,86.45
2018-10-16T07:02:23.086Z,86.74
2018-10-16T07:03:23.257Z,86.11
2018-10-16T07:04:23.435Z,86.02
2018-10-16T07:05:23.610Z,86.11
2018-10-16T07:06:23.844Z,86.02
2018-10-16T07:07:24.060Z,86.21
2018-10-16T07:08:24.144Z,85.64
2018-10-16T07:09:24.306Z,85.35
2018-10-16T07:10:24.486Z,85.35
2018-10-16T07:11:24.654Z,85.54
2018-10-16T07:12:24.823Z,85.25
2018-10-16T07:13:25.000Z,85.54
2018-10-16T07:14:25.199Z,85.83
2018-10-16T07:15:25.341Z,86.69
2018-10-16T07:16:25.522Z,86.83
2018-10-16T07:17:25.699Z,87.69
2018-10-16T07:18:25.878Z,87.69
2018-10-16T07:19:26.057Z,87.45
2018-10-16T07:20:26.234Z,87.64
2018-10-16T07:21:26.447Z,87.26
2018-10-16T07:22:26.592Z,87.35
2018-10-16T07:23:26.907Z,87.69
2018-10-16T07:24:26.937Z,88.17
2018-10-16T07:25:27.111Z,89.03
2018-10-16T07:26:27.291Z,89.40
2018-10-16T07:27:27.471Z,89.45
2018-10-16T07:28:27.659Z,88.50
2018-10-16T07:29:27.834Z,88.59
2018-10-16T07:30:28.026Z,87.54
2018-10-16T07:31:28.191Z,87.30
2018-10-16T07:32:28.367Z,86.69
2018-10-16T07:33:28.543Z,87.02
2018-10-16T07:34:28.712Z,86.25
2018-10-16T07:35:28.898Z,85.97
2018-10-16T07:36:29.077Z,85.49
2018-10-16T07:37:29.255Z,84.92
2018-10-16T07:38:29.598Z,84.92
2018-10-16T07:39:29.605Z,84.92
2018-10-16T07:40:29.783Z,84.96
2018-10-16T07:41:29.955Z,84.82
2018-10-16T07:42:30.138Z,84.86
2018-10-16T07:43:30.318Z,84.00
2018-10-16T07:44:30.513Z,84.48
2018-10-16T07:45:30.679Z,83.62
2018-10-16T07:46:30.900Z,83.62
2018-10-16T07:47:31.028Z,84.39
2018-10-16T07:48:31.393Z,85.15
2018-10-16T07:49:31.356Z,85.05
2018-10-16T07:50:31.587Z,84.58
2018-10-16T07:51:31.733Z,84.86
2018-10-16T07:52:31.914Z,85.15
2018-10-16T07:53:32.093Z,85.72
2018-10-16T07:54:32.266Z,85.34
2018-10-16T07:55:32.446Z,85.63
2018-10-16T07:56:32.636Z,85.91
2018-10-16T07:57:32.809Z,85.82
2018-10-16T07:58:33.000Z,85.49
2018-10-16T07:59:33.189Z,86.49
2018-10-16T08:00:33.333Z,88.31
2018-10-16T08:01:33.507Z,88.50
2018-10-16T08:02:33.680Z,88.59
2018-10-16T08:03:33.860Z,89.45
2018-10-16T08:04:34.042Z,89.45
2018-10-16T08:05:34.217Z,89.36
2018-10-16T08:06:34.396Z,89.45
2018-10-16T08:07:34.565Z,89.54
2018-10-16T08:08:34.754Z,89.54
2018-10-16T08:09:34.926Z,88.92
2018-10-16T08:10:35.102Z,88.26
2018-10-16T08:11:35.280Z,88.54
2018-10-16T08:12:35.475Z,88.54
2018-10-16T08:13:35.639Z,88.07
2018-10-16T08:14:35.812Z,88.54
2018-10-16T08:15:35.990Z,88.07
2018-10-16T08:16:36.179Z,87.59
2018-10-16T08:17:36.355Z,87.59
2018-10-16T08:18:36.536Z,87.49
2018-10-16T08:19:36.711Z,87.40
2018-10-16T08:20:36.886Z,87.35
2018-10-16T08:21:37.089Z,87.35
2018-10-16T08:22:37.248Z,86.96
2018-10-16T08:23:37.421Z,87.15
2018-10-16T08:24:37.603Z,87.25
2018-10-16T08:25:37.795Z,87.06
2018-10-16T08:26:37.979Z,86.96
2018-10-16T08:27:38.142Z,87.35
2018-10-16T08:28:38.319Z,87.06
2018-10-16T08:29:38.499Z,86.68
2018-10-16T08:31:38.851Z,86.68
2018-10-16T08:32:39.019Z,87.35
2018-10-16T08:33:39.195Z,86.68
2018-10-16T08:34:39.376Z,86.87
2018-10-16T08:35:39.560Z,87.25
2018-10-16T08:36:39.771Z,87.54
2018-10-16T08:37:39.957Z,87.82
2018-10-16T08:38:40.066Z,86.77
2018-10-16T08:39:40.238Z,86.49
2018-10-16T08:40:40.398Z,86.77
2018-10-16T08:41:40.618Z,86.58
2018-10-16T08:42:40.823Z,86.68
2018-10-16T08:43:40.975Z,86.77
2018-10-16T08:44:41.160Z,86.96
2018-10-16T08:45:41.325Z,86.43
2018-10-16T08:46:41.506Z,86.72
2018-10-16T08:47:41.769Z,86.15
2018-10-16T08:48:41.859Z,86.63
2018-10-16T08:49:42.038Z,86.15
2018-10-16T08:50:42.218Z,85.77
2018-10-16T08:51:42.394Z,85.86
2018-10-16T08:52:42.578Z,85.48
2018-10-16T08:53:42.745Z,85.77
2018-10-16T08:54:42.932Z,85.14
2018-10-16T08:55:43.097Z,85.14
2018-10-16T08:56:43.277Z,84.56
2018-10-16T08:57:43.460Z,84.66
2018-10-16T08:58:43.651Z,84.56
2018-10-16T09:00:43.996Z,84.95
2018-10-16T09:01:44.164Z,84.28
2018-10-16T09:02:44.338Z,84.47
2018-10-16T09:03:44.512Z,84.56
2018-10-16T09:04:44.705Z,84.47
2018-10-16T09:05:44.867Z,83.84
2018-10-16T09:06:45.192Z,83.27
2018-10-16T09:07:45.183Z,82.70
2018-10-16T09:08:45.356Z,81.68
2018-10-16T09:09:45.539Z,81.49
2018-10-16T09:10:45.739Z,81.11
2018-10-16T09:12:46.126Z,80.96
2018-10-16T09:13:46.350Z,80.06
2018-10-16T09:14:46.458Z,81.02
2018-10-16T09:15:46.645Z,81.40
2018-10-16T09:16:46.811Z,81.11
2018-10-16T09:17:46.987Z,81.26
2018-10-16T09:18:47.175Z,82.12
2018-10-16T09:19:47.332Z,83.84
2018-10-16T09:20:47.518Z,83.84
2018-10-16T09:21:47.731Z,83.84
2018-10-16T09:22:47.860Z,84.42
2018-10-16T09:23:48.027Z,83.84
2018-10-16T09:24:48.263Z,82.45
2018-10-16T09:25:48.426Z,81.34
2018-10-16T09:26:48.622Z,80.14
2018-10-16T09:27:48.759Z,78.51
2018-10-16T09:28:48.954Z,78.70
2018-10-16T09:29:49.138Z,78.13
2018-10-16T09:30:49.391Z,78.47
2018-10-16T09:31:49.518Z,79.57
2018-10-16T09:32:49.678Z,78.70
2018-10-16T09:33:49.884Z,77.97
2018-10-16T09:34:50.058Z,76.19
2018-10-16T09:35:50.231Z,75.27
2018-10-16T09:36:50.391Z,74.51
2018-10-16T09:37:50.733Z,74.89
2018-10-16T09:38:50.753Z,74.22
2018-10-16T09:39:50.932Z,74.95
2018-10-16T09:40:51.103Z,75.23
2018-10-16T09:41:51.300Z,74.89
2018-10-16T09:42:51.453Z,74.54
2018-10-16T09:43:51.622Z,73.10
2018-10-16T09:44:51.785Z,73.20
2018-10-16T09:45:51.962Z,73.26
2018-10-16T09:46:52.139Z,73.45
2018-10-16T09:47:52.326Z,74.18
2018-10-16T09:48:52.539Z,75.23
2018-10-16T09:49:52.688Z,74.95
2018-10-16T09:50:52.869Z,75.08
2018-10-16T09:51:53.084Z,73.39
2018-10-16T09:52:53.320Z,72.43
2018-10-16T09:53:53.461Z,71.89
2018-10-16T09:54:53.636Z,71.22
2018-10-16T09:55:53.822Z,71.09
2018-10-16T09:56:54.000Z,72.39
2018-10-16T09:57:54.202Z,72.63
2018-10-16T09:58:54.366Z,72.43
2018-10-16T09:59:54.548Z,72.05
2018-10-16T10:00:54.812Z,71.22
2018-10-16T10:01:54.904Z,71.28
2018-10-16T10:02:55.073Z,71.47
2018-10-16T10:03:55.251Z,72.43
2018-10-16T10:04:55.431Z,72.33
2018-10-16T10:05:55.620Z,73.26
2018-10-16T10:06:55.755Z,74.02
2018-10-16T10:07:55.976Z,73.83
2018-10-16T10:08:56.139Z,74.12
2018-10-16T10:09:56.307Z,74.69
2018-10-16T10:10:56.517Z,75.18
2018-10-16T10:11:56.657Z,74.79
2018-10-16T10:12:56.811Z,75.08
2018-10-16T10:13:56.990Z,74.31
2018-10-16T10:14:57.167Z,74.12
2018-10-16T10:15:57.344Z,75.27
2018-10-16T10:16:57.516Z,74.89
2018-10-16T10:17:57.707Z,73.68
2018-10-16T10:18:57.893Z,72.02
2018-10-16T10:19:58.073Z,69.66
2018-10-16T10:20:58.257Z,69.53
2018-10-16T10:21:58.420Z,68.41
2018-10-16T10:22:58.596Z,67.74
2018-10-16T10:23:58.792Z,69.87
2018-10-16T10:24:59.028Z,70.36
2018-10-16T10:25:59.127Z,71.12
2018-10-16T10:26:59.303Z,70.49
2018-10-16T10:27:59.484Z,70.64
2018-10-16T10:28:59.681Z,69.91
2018-10-16T10:29:59.844Z,69.72
2018-10-16T10:31:00.040Z,69.87
2018-10-16T10:32:00.233Z,70.74
2018-10-16T10:33:00.414Z,70.10
2018-10-16T10:34:00.558Z,71.06
2018-10-16T10:35:00.761Z,69.81
2018-10-16T10:36:00.981Z,70.49
2018-10-16T10:37:01.184Z,70.10
2018-10-16T10:38:01.334Z,69.87
2018-10-16T10:39:01.568Z,71.25
2018-10-16T10:40:01.726Z,70.84
2018-10-16T10:41:01.884Z,71.12
2018-10-16T10:42:02.166Z,71.37
2018-10-16T10:43:02.275Z,72.43
2018-10-16T10:44:02.445Z,72.08
2018-10-16T10:45:02.607Z,72.33
2018-10-16T10:46:02.781Z,71.73
2018-10-16T10:47:02.943Z,69.85
2018-10-16T10:48:03.129Z,68.54
2018-10-16T10:49:03.311Z,67.68
2018-10-16T10:50:03.595Z,67.48
2018-10-16T10:51:03.837Z,67.58
2018-10-16T10:52:03.812Z,67.74
2018-10-16T10:53:04.004Z,68.25
2018-10-16T10:54:04.172Z,69.66
2018-10-16T10:55:04.367Z,70.04
2018-10-16T10:56:04.521Z,69.85
2018-10-16T10:57:05.007Z,69.27
2018-10-16T10:58:04.858Z,69.08
2018-10-16T10:59:05.031Z,68.79
2018-10-16T11:00:05.213Z,69.56
2018-10-16T11:01:05.380Z,68.89
2018-10-16T11:02:05.590Z,68.51
2018-10-16T11:03:05.770Z,68.79
2018-10-16T11:04:05.928Z,68.54
2018-10-16T11:05:06.118Z,68.98
2018-10-16T11:06:06.300Z,69.85
2018-10-16T11:07:06.459Z,69.08
2018-10-16T11:08:06.634Z,69.37
2018-10-16T11:09:06.936Z,69.56
2018-10-16T11:10:06.998Z,69.27
2018-10-16T11:11:07.535Z,69.46
2018-10-16T11:12:07.359Z,68.83
2018-10-16T11:13:07.569Z,68.35
2018-10-16T11:14:07.721Z,68.25
2018-10-16T11:15:08.000Z,68.25
2018-10-16T11:16:08.083Z,68.06
2018-10-16T11:17:08.268Z,68.06
2018-10-16T11:18:08.444Z,67.80
2018-10-16T11:19:08.651Z,68.09
2018-10-16T11:20:08.818Z,67.86
2018-10-16T11:21:09.093Z,68.70
2018-10-16T11:22:09.212Z,69.02
2018-10-16T11:23:09.381Z,68.54
2018-10-16T11:24:09.544Z,68.63
2018-10-16T11:25:09.747Z,68.73
2018-10-16T11:26:09.908Z,68.54
2018-10-16T11:27:10.255Z,67.68
2018-10-16T11:28:10.263Z,66.71
2018-10-16T11:29:10.451Z,67.86
2018-10-16T11:30:10.688Z,67.38
2018-10-16T11:31:10.780Z,67.61
2018-10-16T11:32:10.972Z,67.51
2018-10-16T11:33:11.250Z,66.74
2018-10-16T11:34:11.379Z,66.46
2018-10-16T11:35:11.613Z,66.84
2018-10-16T11:36:11.768Z,66.55
2018-10-16T11:37:11.941Z,66.74
2018-10-16T11:38:12.137Z,67.03
2018-10-16T11:39:12.364Z,66.65
2018-10-16T11:40:12.489Z,66.88
2018-10-16T11:41:12.667Z,66.78
2018-10-16T11:42:12.859Z,66.88
2018-10-16T11:43:13.034Z,66.78
2018-10-16T11:44:13.219Z,66.78
2018-10-16T11:45:13.569Z,66.78
2018-10-16T11:46:13.601Z,67.26
2018-10-16T11:47:13.777Z,66.78
2018-10-16T11:48:13.955Z,66.68
2018-10-16T11:49:14.132Z,66.81
2018-10-16T11:50:14.370Z,66.71
2018-10-16T11:51:14.506Z,66.68
2018-10-16T11:52:14.720Z,67.55
2018-10-16T11:53:14.856Z,68.03
2018-10-16T11:54:15.053Z,67.45
2018-10-16T11:55:15.236Z,67.45
2018-10-16T11:56:15.533Z,67.83
2018-10-16T11:57:15.578Z,67.90
2018-10-16T11:58:15.756Z,67.61
2018-10-16T11:59:16.075Z,68.63
2018-10-16T12:00:16.126Z,68.35
2018-10-16T12:01:16.294Z,67.96
2018-10-16T12:02:16.670Z,68.35
2018-10-16T12:03:16.655Z,69.12
2018-10-16T12:04:16.856Z,69.40
2018-10-16T12:05:17.011Z,69.50
2018-10-16T12:06:17.188Z,70.27
2018-10-16T12:07:17.467Z,71.23
2018-10-16T12:08:17.640Z,71.33
2018-10-16T12:09:17.697Z,71.26
2018-10-16T12:10:17.871Z,70.59
2018-10-16T12:11:18.149Z,70.01
2018-10-16T12:12:18.248Z,70.01
2018-10-16T12:13:18.660Z,69.85
2018-10-16T12:14:18.593Z,69.47
2018-10-16T12:15:18.775Z,69.67
2018-10-16T12:16:18.983Z,69.28
2018-10-16T12:17:19.151Z,69.28
2018-10-16T12:18:19.348Z,68.84
2018-10-16T12:19:19.542Z,69.12
2018-10-16T12:20:19.707Z,68.54
2018-10-16T12:21:19.862Z,68.84
2018-10-16T12:22:20.066Z,68.54
2018-10-16T12:23:20.309Z,67.87
2018-10-16T12:24:20.453Z,67.97
2018-10-16T12:25:20.643Z,67.87
2018-10-16T12:26:20.823Z,68.26
2018-10-16T12:27:21.029Z,68.16
2018-10-16T12:28:21.195Z,68.06
2018-10-16T12:29:21.357Z,67.97
2018-10-16T12:30:21.564Z,67.39
2018-10-16T12:31:21.714Z,68.06
2018-10-16T12:32:22.013Z,67.97
2018-10-16T12:33:22.095Z,67.87
2018-10-16T12:34:22.268Z,68.13
2018-10-16T12:35:22.445Z,68.60
2018-10-16T12:36:22.656Z,68.41
2018-10-16T12:37:22.814Z,69.67
2018-10-16T12:38:23.049Z,69.63
2018-10-16T12:39:23.161Z,69.92
2018-10-16T12:40:23.348Z,70.11
2018-10-16T12:41:23.531Z,70.24
2018-10-16T12:42:26.306Z,69.95
2018-10-16T12:43:24.060Z,69.95
2018-10-16T12:44:24.149Z,69.95
2018-10-16T12:45:24.394Z,69.85
2018-10-16T12:46:24.540Z,69.67
2018-10-16T12:47:24.708Z,69.95
2018-10-16T12:48:24.875Z,69.76
2018-10-16T12:49:25.351Z,70.05
2018-10-16T12:50:25.299Z,69.85
2018-10-16T12:51:25.379Z,69.57
2018-10-16T12:52:25.570Z,70.05
2018-10-16T12:53:25.785Z,69.18
2018-10-16T12:54:25.963Z,69.15
2018-10-16T12:55:26.136Z,69.53
2018-10-16T12:56:26.334Z,70.88
2018-10-16T12:57:26.594Z,71.23